Time;durP1;ratioP1;P1;durP2;ratioP2;P2;SDS_P1;SDS_P2;PMS_P1;PMS_P2;Temp;Humidity;BMP_temperature;BMP_pressure;BME280_temperature;BME280_humidity;BME280_pressure;Samples;Min_cycle;Max_cycle;Signal;HPM_P1;HPM_P2
2023/02/13 00:01:21;;;;;;;;;;;;;;;12.83;43.35;102836.72;4974637;27;99863;-68
2023/02/13 00:03:46;;;;;;;;;;;;;;;12.83;43.74;102836.72;4959449;28;128153;-67
2023/02/13 00:06:12;;;;;;;;;;;;;;;12.83;43.44;102828.59;4959350;28;127905;-68
2023/02/13 00:08:38;;;;;;;;;;;;;;;12.84;43.67;102832.94;4955466;28;97911;-68
2023/02/13 00:11:04;;;;;;;;;;;;;;;12.84;43.38;102830.22;4958985;28;129143;-67
2023/02/13 00:13:31;;;;;;;;;;;;;;;12.84;43.60;102832.94;4943346;28;121235;-67
2023/02/13 00:15:58;;;;;;;;;;;;;;;12.84;43.37;102835.66;4939261;28;107900;-68
2023/02/13 00:18:25;;;;;;;;;;;;;;;12.85;43.58;102840.03;4936641;28;98184;-68
2023/02/13 00:21:04;;;;;;;;;;;;;;;12.84;43.61;102832.13;4924161;28;116152;-68
2023/02/13 00:23:31;;;;;;;;;;;;;;;12.85;43.56;102834.63;4941311;28;100443;-67
2023/02/13 00:25:57;;;;;;;;;;;;;;;12.84;43.49;102835.66;4937202;28;117545;-67
2023/02/13 00:28:23;;;;;;;;;;;;;;;12.85;43.60;102831.06;4935560;28;117167;-68
2023/02/13 00:30:49;;;;;;;;;;;;;;;12.84;43.38;102830.22;4955194;28;128069;-68
2023/02/13 00:33:15;;;;;;;;;;;;;;;12.85;43.58;102828.34;4953195;28;128399;-68
2023/02/13 00:35:41;;;;;;;;;;;;;;;12.85;43.39;102826.50;4940499;28;125608;-67
2023/02/13 00:38:07;;;;;;;;;;;;;;;12.85;43.62;102823.78;4940142;28;98373;-67
2023/02/13 00:40:33;;;;;;;;;;;;;;;12.86;43.63;102827.31;4943627;28;127439;-67
2023/02/13 00:42:59;;;;;;;;;;;;;;;12.86;43.59;102821.91;4941239;28;126889;-67
2023/02/13 00:45:24;;;;;;;;;;;;;;;12.86;43.35;102828.16;4939768;28;127370;-68
2023/02/13 00:47:50;;;;;;;;;;;;;;;12.85;43.63;102820.22;4923794;27;114937;-68
2023/02/13 00:50:16;;;;;;;;;;;;;;;12.85;43.34;102828.34;4939834;28;102697;-68
2023/02/13 00:52:42;;;;;;;;;;;;;;;12.86;43.62;102824.63;4942531;28;110653;-67
2023/02/13 00:55:08;;;;;;;;;;;;;;;12.85;43.52;102823.78;4925234;28;98129;-68
2023/02/13 00:57:34;;;;;;;;;;;;;;;12.86;43.48;102822.72;4939273;28;123334;-69
2023/02/13 01:00:00;;;;;;;;;;;;;;;12.86;43.49;102825.44;4924869;28;129691;-68
2023/02/13 01:02:26;;;;;;;;;;;;;;;12.86;43.35;102827.31;4940389;28;102688;-68
2023/02/13 01:04:52;;;;;;;;;;;;;;;12.86;43.56;102820.03;4922301;28;129673;-67
2023/02/13 01:07:18;;;;;;;;;;;;;;;12.87;43.55;102820.84;4920857;28;97915;-67
2023/02/13 01:09:44;;;;;;;;;;;;;;;12.86;43.49;102819.19;4941382;28;98273;-68
2023/02/13 01:12:10;;;;;;;;;;;;;;;12.86;43.48;102817.31;4956634;28;121074;-67
2023/02/13 01:14:36;;;;;;;;;;;;;;;12.86;43.66;102811.91;4941995;28;116921;-67
2023/02/13 01:17:02;;;;;;;;;;;;;;;12.85;43.43;102814.81;4945866;28;111347;-68
2023/02/13 01:19:27;;;;;;;;;;;;;;;12.86;43.79;102816.50;4959875;28;127551;-69
2023/02/13 01:21:53;;;;;;;;;;;;;;;12.86;43.47;102816.50;4943481;28;120162;-68
2023/02/13 01:24:19;;;;;;;;;;;;;;;12.86;43.33;102819.19;4945288;28;128416;-69
2023/02/13 01:26:45;;;;;;;;;;;;;;;12.86;43.49;102800.25;4943980;28;122371;-69
2023/02/13 01:29:12;;;;;;;;;;;;;;;12.85;43.63;102810.25;4959458;28;126169;-68
2023/02/13 01:31:38;;;;;;;;;;;;;;;12.86;43.40;102808.38;4945310;28;99954;-69
2023/02/13 01:34:04;;;;;;;;;;;;;;;12.86;43.40;102808.38;4959889;28;112795;-70
2023/02/13 01:36:30;;;;;;;;;;;;;;;12.85;43.42;102812.97;4951961;28;114707;-69
2023/02/13 01:38:57;;;;;;;;;;;;;;;12.85;44.00;102809.41;4944805;28;122909;-67
2023/02/13 01:41:24;;;;;;;;;;;;;;;12.85;43.47;102804.00;4944555;28;98106;-68
2023/02/13 01:43:55;;;;;;;;;;;;;;;12.84;43.59;102800.47;4960164;28;121952;-70
2023/02/13 01:46:36;;;;;;;;;;;;;;;12.85;43.74;102806.69;4956646;28;114862;-70
2023/02/13 01:49:10;;;;;;;;;;;;;;;12.84;43.43;102803.16;4957049;28;119378;-70
2023/02/13 01:51:36;;;;;;;;;;;;;;;12.84;43.70;102797.75;4927011;28;99264;-68
2023/02/13 01:54:12;;;;;;;;;;;;;;;12.84;43.68;102800.47;4958938;28;120365;-70
2023/02/13 01:56:44;;;;;;;;;;;;;;;12.84;43.71;102803.16;4943061;28;105768;-67
2023/02/13 01:59:12;;;;;;;;;;;;;;;12.85;43.44;102804.84;4958768;27;126039;-68
2023/02/13 02:01:38;;;;;;;;;;;;;;;12.85;43.40;102801.28;4940931;28;114386;-68
2023/02/13 02:04:11;;;;;;;;;;;;;;;12.83;43.45;102793.41;4959859;28;98843;-69
2023/02/13 02:06:40;;;;;;;;;;;;;;;12.84;43.47;102800.47;4959988;28;97972;-67
2023/02/13 02:09:09;;;;;;;;;;;;;;;12.85;43.62;102796.72;4930497;28;99583;-67
2023/02/13 02:11:46;;;;;;;;;;;;;;;12.85;43.36;102793.16;4960485;28;122513;-69
2023/02/13 02:14:12;;;;;;;;;;;;;;;12.85;43.45;102798.56;4975935;27;98985;-67
2023/02/13 02:16:38;;;;;;;;;;;;;;;12.84;43.46;102796.94;4941366;28;121302;-68
2023/02/13 02:19:04;;;;;;;;;;;;;;;12.85;43.47;102796.72;4974017;27;128384;-67
2023/02/13 02:21:50;;;;;;;;;;;;;;;12.85;43.60;102801.28;4942377;28;116516;-69
2023/02/13 02:24:55;;;;;;;;;;;;;;;12.85;43.44;102798.56;4974926;27;100547;-67
2023/02/13 02:27:49;;;;;;;;;;;;;;;12.85;43.42;102793.16;4963196;27;98304;-68
2023/02/13 02:30:38;;;;;;;;;;;;;;;12.85;43.70;102798.56;4942023;28;114722;-69
2023/02/13 02:33:23;;;;;;;;;;;;;;;12.85;43.64;102799.44;4976797;27;100384;-69
2023/02/13 02:35:49;;;;;;;;;;;;;;;12.85;43.64;102790.47;4976939;28;98159;-67
2023/02/13 02:38:56;;;;;;;;;;;;;;;12.85;43.41;102791.31;4977048;28;99106;-69
2023/02/13 02:42:06;;;;;;;;;;;;;;;12.85;43.56;102793.16;4975856;27;98842;-69
2023/02/13 02:45:00;;;;;;;;;;;;;;;12.84;43.60;102786.94;4944331;28;116677;-67
2023/02/13 02:50:58;;;;;;;;;;;;;;;12.84;43.43;102789.63;4975758;27;98133;-68
2023/02/13 02:53:39;;;;;;;;;;;;;;;12.85;43.47;102785.03;4974485;27;98098;-68
2023/02/13 02:56:19;;;;;;;;;;;;;;;12.85;43.51;102791.31;4959083;28;121103;-68
2023/02/13 03:07:17;;;;;;;;;;;;;;;12.85;43.66;102795.88;4940450;28;98236;-68
2023/02/13 03:13:21;;;;;;;;;;;;;;;12.85;43.44;102791.31;4958666;28;99554;-70
2023/02/13 03:24:57;;;;;;;;;;;;;;;12.85;43.85;102801.28;4980341;28;97931;-70
2023/02/13 03:30:44;;;;;;;;;;;;;;;12.85;43.44;102801.28;4965682;28;98450;-70
2023/02/13 03:33:37;;;;;;;;;;;;;;;12.84;43.70;102799.63;4963184;28;120883;-69
2023/02/13 03:39:09;;;;;;;;;;;;;;;12.85;43.65;102794.00;4980049;27;98160;-69
2023/02/13 03:41:41;;;;;;;;;;;;;;;12.85;43.70;102796.72;4977881;27;97971;-67
2023/02/13 03:44:17;;;;;;;;;;;;;;;12.86;43.47;102797.53;4945566;28;98219;-69
2023/02/13 03:46:47;;;;;;;;;;;;;;;12.85;43.72;102795.88;4960941;28;98039;-70
2023/02/13 03:52:27;;;;;;;;;;;;;;;12.86;43.54;102798.38;4963145;28;98221;-70
2023/02/13 04:00:30;;;;;;;;;;;;;;;12.86;43.49;102800.25;4967024;27;98261;-68
2023/02/13 04:03:16;;;;;;;;;;;;;;;12.85;43.64;102794.00;4962349;28;128111;-68
2023/02/13 04:05:48;;;;;;;;;;;;;;;12.86;43.46;102797.53;4980259;27;97988;-70
2023/02/13 04:08:14;;;;;;;;;;;;;;;12.85;43.67;102796.72;4945862;27;122409;-68
2023/02/13 04:10:58;;;;;;;;;;;;;;;12.85;43.82;102802.13;4949264;28;129465;-70
2023/02/13 04:13:38;;;;;;;;;;;;;;;12.86;43.82;102802.97;4966828;28;98212;-69
2023/02/13 04:16:40;;;;;;;;;;;;;;;12.85;43.52;102804.84;4943025;28;122842;-68
2023/02/13 04:19:06;;;;;;;;;;;;;;;12.85;43.62;102807.56;4905094;28;122246;-68
2023/02/13 04:21:36;;;;;;;;;;;;;;;12.85;43.72;102806.69;4930477;28;129433;-68
2023/02/13 04:24:02;;;;;;;;;;;;;;;12.85;43.63;102799.44;4955450;28;122853;-69
2023/02/13 04:26:38;;;;;;;;;;;;;;;12.84;43.73;102799.63;4945458;28;97881;-68
2023/02/13 04:29:04;;;;;;;;;;;;;;;12.84;43.60;102800.47;4962091;28;97885;-69
2023/02/13 04:31:30;;;;;;;;;;;;;;;12.84;43.71;102799.63;4960453;28;126694;-68
2023/02/13 04:33:56;;;;;;;;;;;;;;;12.85;43.92;102804.00;4979282;27;127470;-67
2023/02/13 04:36:22;;;;;;;;;;;;;;;12.85;43.75;102799.44;4947412;28;108538;-68
2023/02/13 04:38:48;;;;;;;;;;;;;;;12.85;43.68;102801.28;4958912;27;122078;-66
2023/02/13 04:41:14;;;;;;;;;;;;;;;12.85;43.39;102802.13;4961498;28;121001;-67
2023/02/13 04:43:40;;;;;;;;;;;;;;;12.85;43.64;102798.56;4979156;27;98506;-67
2023/02/13 04:46:06;;;;;;;;;;;;;;;12.85;43.72;102798.56;4959406;28;97998;-68
2023/02/13 04:48:32;;;;;;;;;;;;;;;12.85;43.78;102799.44;4976669;27;122863;-67
2023/02/13 04:50:58;;;;;;;;;;;;;;;12.86;43.71;102802.97;4962476;28;129364;-68
2023/02/13 04:53:24;;;;;;;;;;;;;;;12.85;43.69;102799.44;4957208;28;127948;-68
2023/02/13 04:55:50;;;;;;;;;;;;;;;12.86;43.94;102811.09;4957904;28;130767;-68
2023/02/13 04:58:16;;;;;;;;;;;;;;;12.85;43.75;102807.56;4939907;28;115218;-68
2023/02/13 05:00:42;;;;;;;;;;;;;;;12.85;43.80;102804.84;4961090;28;99988;-68
2023/02/13 05:03:09;;;;;;;;;;;;;;;12.86;43.55;102809.19;4959344;28;127799;-67
2023/02/13 05:05:35;;;;;;;;;;;;;;;12.86;43.71;102809.19;4945715;28;99261;-67
2023/02/13 05:08:01;;;;;;;;;;;;;;;12.85;43.60;102799.44;4944758;28;122009;-68
2023/02/13 05:10:27;;;;;;;;;;;;;;;12.87;43.58;102804.59;4962981;28;101137;-68
2023/02/13 05:12:53;;;;;;;;;;;;;;;12.86;43.74;102802.97;4959468;28;125230;-67
2023/02/13 05:15:19;;;;;;;;;;;;;;;12.86;43.51;102797.53;4958255;28;121424;-68
2023/02/13 05:17:45;;;;;;;;;;;;;;;12.86;43.73;102809.19;4942089;28;98136;-67
2023/02/13 05:20:12;;;;;;;;;;;;;;;12.86;43.81;102805.66;4957086;28;98624;-67
2023/02/13 05:25:30;;;;;;;;;;;;;;;12.86;43.59;102816.50;4978683;27;98880;-67
2023/02/13 05:27:56;;;;;;;;;;;;;;;12.86;43.63;102809.19;4950756;27;110555;-67
2023/02/13 05:30:22;;;;;;;;;;;;;;;12.86;43.59;102808.38;4960969;28;98862;-68
2023/02/13 05:32:50;;;;;;;;;;;;;;;12.85;43.58;102809.41;4958240;28;129981;-67
2023/02/13 05:35:17;;;;;;;;;;;;;;;12.85;43.81;102810.25;4946337;27;97898;-68
2023/02/13 05:37:42;;;;;;;;;;;;;;;12.86;43.92;102808.38;4945790;27;118854;-68
2023/02/13 05:40:09;;;;;;;;;;;;;;;12.86;43.61;102809.19;4958999;28;128643;-68
2023/02/13 05:42:35;;;;;;;;;;;;;;;12.86;43.84;102811.09;4960813;28;98007;-67
2023/02/13 05:45:01;;;;;;;;;;;;;;;12.85;43.67;102802.13;4975661;27;129544;-68
2023/02/13 05:47:27;;;;;;;;;;;;;;;12.85;43.83;102807.56;4960329;28;121264;-68
2023/02/13 05:49:53;;;;;;;;;;;;;;;12.85;43.73;102812.09;4963167;28;127760;-68
2023/02/13 05:52:19;;;;;;;;;;;;;;;12.85;43.87;102810.25;4972401;28;98135;-67
2023/02/13 05:54:45;;;;;;;;;;;;;;;12.86;43.64;102805.66;4976091;27;127292;-68
2023/02/13 05:57:10;;;;;;;;;;;;;;;12.85;43.52;102801.28;4947324;27;122768;-69
2023/02/13 05:59:36;;;;;;;;;;;;;;;12.85;43.45;102804.00;4959015;28;128377;-68
2023/02/13 06:02:02;;;;;;;;;;;;;;;12.85;43.64;102814.81;4977119;27;131790;-67
2023/02/13 06:04:28;;;;;;;;;;;;;;;12.85;43.87;102812.09;4942908;28;127231;-68
2023/02/13 06:06:55;;;;;;;;;;;;;;;12.85;43.85;102823.78;4961211;28;122685;-68
2023/02/13 06:09:20;;;;;;;;;;;;;;;12.84;43.50;102818.59;4939977;28;99476;-68
2023/02/13 06:11:46;;;;;;;;;;;;;;;12.85;43.71;102826.50;4958727;28;100041;-68
2023/02/13 06:14:13;;;;;;;;;;;;;;;12.86;43.58;102830.03;4971990;27;127784;-67
2023/02/13 06:16:39;;;;;;;;;;;;;;;12.85;43.59;102821.09;4942296;28;98246;-67
2023/02/13 06:19:05;;;;;;;;;;;;;;;12.86;43.88;102813.78;4958979;28;99311;-67
2023/02/13 06:21:32;;;;;;;;;;;;;;;12.85;43.60;102821.09;4960410;28;98403;-68
2023/02/13 06:23:58;;;;;;;;;;;;;;;12.86;43.91;102824.63;4976505;27;98110;-67
2023/02/13 06:26:24;;;;;;;;;;;;;;;12.87;43.71;102827.09;4960894;28;112820;-67
2023/02/13 06:28:50;;;;;;;;;;;;;;;12.88;43.67;102822.50;4958555;28;128439;-67
2023/02/13 06:31:16;;;;;;;;;;;;;;;12.87;43.87;102832.50;4976616;27;98282;-68
2023/02/13 06:33:42;;;;;;;;;;;;;;;12.88;43.75;102822.50;4959107;28;98105;-68
2023/02/13 06:36:08;;;;;;;;;;;;;;;12.88;43.62;102831.44;4928927;27;123471;-67
2023/02/13 06:38:34;;;;;;;;;;;;;;;12.89;43.80;102830.41;4957463;28;128650;-68
2023/02/13 06:41:03;;;;;;;;;;;;;;;12.90;43.61;102836.66;4959045;28;127514;-68
2023/02/13 06:43:29;;;;;;;;;;;;;;;12.89;43.74;102830.41;4959132;28;98159;-68
2023/02/13 06:45:55;;;;;;;;;;;;;;;12.91;43.85;102833.69;4961303;28;98167;-67
2023/02/13 06:48:21;;;;;;;;;;;;;;;12.93;43.53;102842.44;4961154;28;126014;-68
2023/02/13 06:50:47;;;;;;;;;;;;;;;12.93;43.54;102845.16;4940674;28;124413;-67
2023/02/13 06:53:13;;;;;;;;;;;;;;;12.93;43.53;102847.84;4963903;28;98492;-68
2023/02/13 06:55:38;;;;;;;;;;;;;;;12.95;43.53;102853.84;4946251;28;121596;-68
2023/02/13 06:58:05;;;;;;;;;;;;;;;12.97;43.65;102849.06;4961135;28;128236;-67
2023/02/13 07:00:31;;;;;;;;;;;;;;;12.98;43.80;102858.00;4962494;28;111406;-68
2023/02/13 07:03:04;;;;;;;;;;;;;;;12.98;43.81;102860.69;4960827;28;127261;-68
2023/02/13 07:05:30;;;;;;;;;;;;;;;12.98;43.62;102861.53;4957910;28;99021;-68
2023/02/13 07:07:56;;;;;;;;;;;;;;;12.99;43.70;102856.94;4958759;28;114678;-68
2023/02/13 07:10:22;;;;;;;;;;;;;;;12.99;43.91;102856.94;4946236;28;98645;-68
2023/02/13 07:12:49;;;;;;;;;;;;;;;13.02;43.47;102859.19;4962357;28;127574;-67
2023/02/13 07:15:15;;;;;;;;;;;;;;;13.02;43.73;102862.72;4962064;28;98117;-67
2023/02/13 07:17:41;;;;;;;;;;;;;;;13.03;43.77;102864.38;4960979;28;101723;-68
2023/02/13 07:20:09;;;;;;;;;;;;;;;13.05;43.57;102863.31;4946030;28;128362;-68
2023/02/13 07:22:35;;;;;;;;;;;;;;;13.06;43.53;102873.13;4980358;28;125761;-68
2023/02/13 07:25:01;;;;;;;;;;;;;;;13.07;43.68;102881.00;4960083;28;98321;-67
2023/02/13 07:27:29;;;;;;;;;;;;;;;13.07;43.76;102867.47;4978306;27;98060;-67
2023/02/13 07:29:56;;;;;;;;;;;;;;;13.09;43.39;102873.50;4962026;28;97964;-68
2023/02/13 07:32:23;;;;;;;;;;;;;;;13.10;43.51;102867.00;4959222;28;97934;-68
2023/02/13 07:34:49;;;;;;;;;;;;;;;13.13;43.49;102873.88;4946520;28;98096;-69
2023/02/13 07:37:15;;;;;;;;;;;;;;;13.13;43.76;102869.28;4960923;28;128513;-68
2023/02/13 07:39:40;;;;;;;;;;;;;;;13.14;43.71;102870.94;4960301;28;127599;-67
2023/02/13 07:42:06;;;;;;;;;;;;;;;13.16;43.75;102878.81;4934022;27;127246;-68
2023/02/13 07:44:32;;;;;;;;;;;;;;;13.17;43.60;102873.19;4944373;28;122758;-69
2023/02/13 07:46:59;;;;;;;;;;;;;;;13.19;43.66;102876.47;4961404;28;128149;-69
2023/02/13 07:49:25;;;;;;;;;;;;;;;13.20;43.50;102877.31;4961725;28;98455;-68
2023/02/13 07:51:51;;;;;;;;;;;;;;;13.22;43.58;102876.03;4944939;28;129694;-69
2023/02/13 07:54:17;;;;;;;;;;;;;;;13.24;43.42;102873.97;4959274;28;122804;-69
2023/02/13 07:56:43;;;;;;;;;;;;;;;13.28;43.35;102887.84;4944117;28;127065;-69
2023/02/13 07:59:10;;;;;;;;;;;;;;;13.30;43.35;102868.69;4960636;28;127927;-67
2023/02/13 08:01:36;;;;;;;;;;;;;;;13.34;43.48;102870.72;4940328;28;127912;-69
2023/02/13 08:04:01;;;;;;;;;;;;;;;13.37;43.32;102867.56;4961414;28;122554;-67
2023/02/13 08:06:27;;;;;;;;;;;;;;;13.41;43.44;102870.63;4942212;28;128596;-68
2023/02/13 08:11:52;;;;;;;;;;;;;;;13.45;43.29;102877.25;4945960;28;102329;-68
2023/02/13 08:11:55;;;;;;;;;;;;;;;13.48;43.67;102872.19;4953588;28;100422;-69
2023/02/13 08:14:22;;;;;;;;;;;;;;;13.50;43.68;102882.81;4962694;28;98148;-70
2023/02/13 08:16:48;;;;;;;;;;;;;;;13.50;43.40;102878.19;4963578;28;112726;-68
2023/02/13 08:19:14;;;;;;;;;;;;;;;13.53;43.37;102884.25;4961278;28;99450;-68
2023/02/13 08:21:40;;;;;;;;;;;;;;;13.55;43.41;102879.41;4960738;28;119195;-68
2023/02/13 08:24:06;;;;;;;;;;;;;;;13.57;43.35;102882.72;4945472;28;102281;-68
2023/02/13 08:26:32;;;;;;;;;;;;;;;13.60;43.66;102891.22;4978884;28;124900;-68
2023/02/13 08:28:58;;;;;;;;;;;;;;;13.62;43.53;102880.97;4977840;27;124310;-67
2023/02/13 08:31:24;;;;;;;;;;;;;;;13.63;43.67;102881.78;4942308;28;123052;-68
2023/02/13 08:33:50;;;;;;;;;;;;;;;13.64;43.26;102881.56;4962249;28;121837;-68
2023/02/13 08:36:17;;;;;;;;;;;;;;;13.63;43.45;102879.06;4959549;28;126803;-68
2023/02/13 08:38:45;;;;;;;;;;;;;;;13.64;43.65;102886.19;4961897;27;98656;-68
2023/02/13 08:41:11;;;;;;;;;;;;;;;13.64;43.31;102880.75;4980325;27;111440;-69
2023/02/13 08:43:37;;;;;;;;;;;;;;;13.68;43.48;102887.38;4943058;28;121994;-67
2023/02/13 08:46:03;;;;;;;;;;;;;;;13.67;43.32;102886.50;4945243;28;128623;-67
2023/02/13 08:48:29;;;;;;;;;;;;;;;13.69;43.54;102897.16;4958263;28;124692;-68
2023/02/13 08:50:55;;;;;;;;;;;;;;;13.71;43.46;102889.59;4942516;28;127800;-67
2023/02/13 08:53:21;;;;;;;;;;;;;;;13.73;43.29;102892.91;4946529;28;122132;-68
2023/02/13 08:55:56;;;;;;;;;;;;;;;13.75;43.31;102896.22;4943060;28;124345;-69
2023/02/13 08:58:22;;;;;;;;;;;;;;;13.75;43.48;102891.63;4963911;28;122961;-69
2023/02/13 09:00:48;;;;;;;;;;;;;;;13.77;43.73;102898.72;4961196;28;124509;-69
2023/02/13 09:03:14;;;;;;;;;;;;;;;13.78;43.56;102890.34;4947446;27;98185;-68
2023/02/13 09:05:40;;;;;;;;;;;;;;;13.81;43.34;102891.75;4943591;28;98071;-68
2023/02/13 09:08:07;;;;;;;;;;;;;;;13.83;43.54;102889.63;4944023;28;98273;-68
2023/02/13 09:10:33;;;;;;;;;;;;;;;13.85;43.63;102891.06;4960971;28;98042;-68
2023/02/13 09:13:00;;;;;;;;;;;;;;;13.86;43.24;102900.03;4967048;27;98003;-68
2023/02/13 09:15:26;;;;;;;;;;;;;;;13.88;43.35;102897.94;4973625;27;99925;-69
2023/02/13 09:17:52;;;;;;;;;;;;;;;13.87;43.50;102897.09;4941898;27;98487;-68
2023/02/13 09:20:18;;;;;;;;;;;;;;;13.89;43.67;102896.84;4944658;28;98306;-70
2023/02/13 09:22:44;;;;;;;;;;;;;;;13.90;43.72;102907.47;4962087;27;122871;-69
2023/02/13 09:25:10;;;;;;;;;;;;;;;13.91;43.50;102909.13;4964719;27;98949;-68
2023/02/13 09:27:37;;;;;;;;;;;;;;;13.93;43.43;102900.75;4963477;28;127937;-69
2023/02/13 09:30:07;;;;;;;;;;;;;;;13.94;43.27;102899.69;4948583;27;98128;-68
2023/02/13 09:32:34;;;;;;;;;;;;;;;13.94;43.42;102900.53;4961804;28;99274;-70
2023/02/13 09:35:00;;;;;;;;;;;;;;;13.95;43.32;102902.19;4952504;27;103492;-70
2023/02/13 09:37:26;;;;;;;;;;;;;;;13.98;43.25;102899.00;4940841;28;129726;-71
2023/02/13 09:39:52;;;;;;;;;;;;;;;14.01;43.22;102895.00;4961366;28;108848;-69
2023/02/13 09:42:25;;;;;;;;;;;;;;;14.03;43.60;102901.03;4948586;28;105007;-70
2023/02/13 09:44:53;;;;;;;;;;;;;;;14.05;43.68;102908.94;4945458;27;98018;-70
2023/02/13 09:47:31;;;;;;;;;;;;;;;14.06;43.66;102910.56;4960324;28;122095;-70
2023/02/13 09:50:11;;;;;;;;;;;;;;;14.07;43.65;102902.22;4976791;27;98206;-68
2023/02/13 09:52:37;;;;;;;;;;;;;;;14.07;43.70;102910.38;4977804;27;98126;-69
2023/02/13 09:55:17;;;;;;;;;;;;;;;14.09;43.31;102910.13;4963978;27;99621;-68
2023/02/13 09:58:02;;;;;;;;;;;;;;;14.10;43.68;102912.59;4959534;27;98818;-69
2023/02/13 10:00:34;;;;;;;;;;;;;;;14.14;43.31;102913.78;4955802;28;128808;-69
2023/02/13 10:03:31;;;;;;;;;;;;;;;14.16;43.54;102910.84;4948941;27;98402;-68
2023/02/13 10:06:28;;;;;;;;;;;;;;;14.16;43.18;102913.56;4938426;28;99592;-69
2023/02/13 10:09:03;;;;;;;;;;;;;;;14.14;43.55;102910.25;4958153;27;126444;-69
2023/02/13 10:11:38;;;;;;;;;;;;;;;14.21;43.06;102910.97;4977885;27;99355;-67
2023/02/13 10:14:18;;;;;;;;;;;;;;;14.22;43.23;102908.00;4957954;28;97959;-68
2023/02/13 10:16:49;;;;;;;;;;;;;;;14.23;43.38;102909.69;4942616;28;113045;-67
2023/02/13 10:19:35;;;;;;;;;;;;;;;14.21;43.26;102914.50;4924043;28;99898;-70
2023/02/13 10:22:14;;;;;;;;;;;;;;;14.24;43.43;102915.94;4958796;28;98325;-67
2023/02/13 10:24:50;;;;;;;;;;;;;;;14.23;43.32;102912.41;4946607;28;97935;-69
2023/02/13 10:27:22;;;;;;;;;;;;;;;14.22;43.35;102902.59;4942075;28;120129;-67
2023/02/13 10:30:15;;;;;;;;;;;;;;;14.20;43.68;102901.19;4940115;28;98432;-69
2023/02/13 10:32:42;;;;;;;;;;;;;;;14.21;43.66;102911.78;4954925;28;99129;-69
2023/02/13 10:35:34;;;;;;;;;;;;;;;14.25;43.12;102906.72;4956431;28;98241;-68
2023/02/13 10:38:00;;;;;;;;;;;;;;;14.32;43.23;102896.59;4951306;28;128195;-67
2023/02/13 10:40:38;;;;;;;;;;;;;;;14.36;43.50;102888.81;4935610;28;127893;-69
2023/02/13 10:43:08;;;;;;;;;;;;;;;14.39;43.31;102885.66;4919736;28;98204;-70
2023/02/13 10:45:55;;;;;;;;;;;;;;;14.42;43.14;102888.72;4939982;28;98278;-67
2023/02/13 10:48:36;;;;;;;;;;;;;;;14.47;43.30;102874.44;4953044;28;123560;-68
2023/02/13 10:51:34;;;;;;;;;;;;;;;14.53;43.39;102873.53;4936659;28;99865;-67
2023/02/13 10:54:25;;;;;;;;;;;;;;;14.58;43.21;102876.38;4953435;28;98340;-71
2023/02/13 10:57:12;;;;;;;;;;;;;;;14.64;43.01;102869.97;4958425;28;97803;-70
2023/02/13 11:00:04;;;;;;;;;;;;;;;14.69;43.18;102870.09;4932610;28;122568;-69
2023/02/13 11:02:35;;;;;;;;;;;;;;;14.77;42.89;102868.09;4945224;28;98035;-69
2023/02/13 11:05:19;;;;;;;;;;;;;;;14.82;42.89;102860.91;4939689;28;99008;-69
2023/02/13 11:07:46;;;;;;;;;;;;;;;14.92;43.12;102849.41;4923995;28;98084;-69
2023/02/13 11:10:19;;;;;;;;;;;;;;;15.00;42.80;102850.94;4952872;28;98581;-69
2023/02/13 11:12:45;;;;;;;;;;;;;;;15.06;42.86;102847.28;4956470;28;123951;-71
2023/02/13 11:15:24;;;;;;;;;;;;;;;15.19;43.06;102844.28;4956799;28;127668;-71
2023/02/13 11:17:52;;;;;;;;;;;;;;;15.32;42.83;102841.25;4958189;28;98529;-69
2023/02/13 11:20:38;;;;;;;;;;;;;;;15.39;42.84;102839.22;4976213;27;98392;-68
2023/02/13 11:23:23;;;;;;;;;;;;;;;15.45;42.74;102843.72;4935880;28;99632;-70
2023/02/13 11:26:03;;;;;;;;;;;;;;;15.49;42.75;102835.09;4973573;28;98438;-68
2023/02/13 11:28:30;;;;;;;;;;;;;;;15.53;42.76;102837.06;4944230;28;97892;-68
2023/02/13 11:31:27;;;;;;;;;;;;;;;15.63;42.92;102836.41;4941726;28;118129;-70
2023/02/13 11:33:53;;;;;;;;;;;;;;;15.68;42.75;102836.56;4956565;28;99453;-67
2023/02/13 11:36:32;;;;;;;;;;;;;;;15.75;42.64;102841.81;4949206;28;98307;-67
2023/02/13 11:39:03;;;;;;;;;;;;;;;15.78;42.61;102839.44;4960960;28;98023;-68
2023/02/13 11:41:30;;;;;;;;;;;;;;;15.90;42.67;102836.66;4962854;28;98414;-70
2023/02/13 11:44:02;;;;;;;;;;;;;;;16.00;42.70;102845.00;4962123;28;98247;-68
2023/02/13 11:46:30;;;;;;;;;;;;;;;16.05;42.55;102836.09;4959099;28;99342;-68
2023/02/13 11:49:03;;;;;;;;;;;;;;;16.07;42.82;102831.22;4944602;28;98583;-71
2023/02/13 11:51:41;;;;;;;;;;;;;;;16.12;42.65;102826.69;4963361;28;123763;-68
2023/02/13 11:54:21;;;;;;;;;;;;;;;16.14;42.77;102827.25;4943906;28;98364;-70
2023/02/13 11:56:48;;;;;;;;;;;;;;;16.18;42.64;102828.41;4962869;28;97979;-71
2023/02/13 11:59:14;;;;;;;;;;;;;;;16.19;42.80;102819.19;4949907;28;99589;-71
2023/02/13 12:01:41;;;;;;;;;;;;;;;16.22;42.83;102819.75;4960770;28;128805;-71
2023/02/13 12:04:17;;;;;;;;;;;;;;;16.22;42.77;102815.13;4962560;28;98763;-71
2023/02/13 12:07:23;;;;;;;;;;;;;;;16.20;42.87;102814.56;4943406;28;98847;-71
2023/02/13 12:10:17;;;;;;;;;;;;;;;16.16;42.96;102813.41;4976628;27;98117;-70
2023/02/13 12:12:52;;;;;;;;;;;;;;;16.07;43.10;102818.44;4943659;28;107035;-68
2023/02/13 12:15:24;;;;;;;;;;;;;;;15.96;43.28;102819.34;4941674;28;100313;-70
2023/02/13 12:18:08;;;;;;;;;;;;;;;15.90;43.19;102815.72;4940851;28;98466;-68
2023/02/13 12:20:59;;;;;;;;;;;;;;;15.82;43.29;102810.69;4940804;28;98287;-68
2023/02/13 12:23:45;;;;;;;;;;;;;;;15.75;43.24;102814.63;4954012;28;100021;-70
2023/02/13 12:26:20;;;;;;;;;;;;;;;15.73;43.50;102816.78;4958493;28;113277;-68
2023/02/13 12:29:10;;;;;;;;;;;;;;;15.69;43.17;102813.72;4963990;28;98263;-70
2023/02/13 12:32:01;;;;;;;;;;;;;;;15.63;43.46;102815.47;4943960;28;121116;-69
2023/02/13 12:34:51;;;;;;;;;;;;;;;15.50;43.58;102812.25;4944885;28;101004;-71
2023/02/13 12:37:37;;;;;;;;;;;;;;;15.44;43.47;102814.88;4947878;28;98341;-68
2023/02/13 12:40:38;;;;;;;;;;;;;;;15.35;43.61;102804.63;4939844;28;98140;-68
2023/02/13 12:43:22;;;;;;;;;;;;;;;15.27;43.58;102799.59;4941023;28;98139;-67
2023/02/13 12:46:13;;;;;;;;;;;;;;;15.22;43.53;102797.63;4959147;28;98398;-68
2023/02/13 12:49:25;;;;;;;;;;;;;;;15.20;43.71;102797.00;4937621;28;127761;-69
2023/02/13 12:52:12;;;;;;;;;;;;;;;15.10;43.74;102792.22;4882076;28;118637;-68
2023/02/13 12:54:57;;;;;;;;;;;;;;;15.07;43.54;102795.41;4880950;28;98035;-67
2023/02/13 12:57:58;;;;;;;;;;;;;;;15.11;43.70;102791.16;4925949;28;124119;-69
2023/02/13 13:00:29;;;;;;;;;;;;;;;15.15;43.23;102794.22;4860732;28;99370;-70
2023/02/13 13:03:38;;;;;;;;;;;;;;;15.22;43.45;102801.16;4908171;28;100024;-67
2023/02/13 13:06:35;;;;;;;;;;;;;;;15.33;43.12;102795.91;4924160;28;116990;-68
2023/02/13 13:09:23;;;;;;;;;;;;;;;15.44;43.02;102793.16;4955013;28;98309;-71
2023/02/13 13:11:49;;;;;;;;;;;;;;;15.54;43.28;102794.41;4960262;28;98777;-69
2023/02/13 13:14:45;;;;;;;;;;;;;;;15.62;42.96;102791.28;4960106;28;99033;-67
2023/02/13 13:17:33;;;;;;;;;;;;;;;15.66;42.97;102793.28;4957467;28;98136;-70
2023/02/13 13:20:07;;;;;;;;;;;;;;;15.68;43.21;102795.78;4958475;28;122137;-68
2023/02/13 13:22:45;;;;;;;;;;;;;;;15.74;43.07;102800.22;4959929;28;98602;-70
2023/02/13 13:25:17;;;;;;;;;;;;;;;15.74;43.04;102792.06;4941086;28;98572;-68
2023/02/13 13:27:44;;;;;;;;;;;;;;;15.74;43.17;102796.66;4938732;28;115348;-71
2023/02/13 13:30:21;;;;;;;;;;;;;;;15.71;43.24;102806.94;4927199;28;99872;-71
2023/02/13 13:32:49;;;;;;;;;;;;;;;15.68;43.16;102807.47;4958299;28;98505;-71
2023/02/13 13:35:15;;;;;;;;;;;;;;;15.65;43.30;102810.66;4928995;28;107920;-68
2023/02/13 13:38:01;;;;;;;;;;;;;;;15.61;43.35;102808.66;4943489;28;97952;-71